Flight Track Log - Related Links

Times and Time Zones

All times are in EDT time to prevent confusion due to time zone crossing. See the SWA3206 flight status page for this flight to view local times or setup timezone preferences in your user account.

Time Position Orientation Groundspeed Altitude Reporting Facility
EDT Latitude Longitude Course Direction KTS MPH feet Rate Location/Type
Tue 11:11:10 AM 39.8833 -75.2167 90° East 147 169 700  Level Philadelphia TRACON
Tue 11:11:46 AM 39.8833 -75.1833 90° East 180 207 1,900 3,000 Climbing Philadelphia TRACON
Tue 11:12:40 AM 39.9167 -75.1167 57° Northeast 215 247 5,200 3,263 Climbing Philadelphia TRACON
Tue 11:13:40 AM 39.9667 -75.1333 346° North 281 323 8,100 2,286 Climbing Philadelphia TRACON
Tue 11:14:46 AM 40.0167 -75.2333 303° West 352 405 10,000 905 Climbing Philadelphia TRACON
Tue 11:15:46 AM 40.0833 -75.3333 311° West 351 404 10,000 1,184 Level Philadelphia TRACON
Tue 11:17:18 AM 40.1736 -75.4867 308° West 364 419 13,000 1,804 Climbing New York Center
Tue 11:18:19 AM 40.2422 -75.5894 311° West 369 425 14,600 2,182 Climbing New York Center
Tue 11:19:19 AM 40.3089 -75.6919 310° West 369 425 17,400 2,667 Climbing New York Center
Tue 11:20:16 AM 40.3736 -75.7892 311° West 379 436 19,800 2,644 Climbing New York Center
Tue 11:21:17 AM 40.4450 -75.9225 305° West 395 455 22,600 2,557 Climbing New York Center
Tue 11:22:18 AM 40.4672 -76.0772 281° West 402 463 25,000 2,182 Climbing New York Center
Tue 11:23:18 AM 40.4939 -76.2267 283° West 415 478 27,000 1,983 Climbing New York Center
Tue 11:24:16 AM 40.5153 -76.3894 280° West 435 501 28,900 1,815 Climbing New York Center
Tue 11:25:17 AM 40.5386 -76.5553 281° West 446 513 30,600 1,785 Climbing New York Center
Tue 11:26:17 AM 40.5639 -76.7211 281° West 459 528 32,500 1,686 Climbing New York Center
Tue 11:27:18 AM 40.5825 -76.8458 281° West 457 526 34,000 1,636 Climbing New York Center
Tue 11:28:18 AM 40.6094 -77.0450 280° West 457 526 35,800 992 Climbing New York Center
Tue 11:29:19 AM 40.6339 -77.2114 281° West 457 526 36,000 101 Climbing New York Center
Tue 11:30:17 AM 40.6572 -77.3586 282° West 457 526 36,000  Level New York Center
Tue 11:31:18 AM 40.6808 -77.5281 280° West 463 533 36,000  Level New York Center
Tue 11:33:21 AM 40.7297 -77.9006 280° West 470 541 36,000 328 Level Cleveland Center
Tue 11:34:21 AM 40.7525 -78.0669 280° West 470 541 37,000 1,000 Climbing Cleveland Center
Tue 11:35:21 AM 40.7747 -78.2389 280° West 470 541 38,000 500 Climbing Cleveland Center
Tue 11:36:21 AM 40.7947 -78.4081 279° West 475 547 38,000  Level Cleveland Center
Tue 11:37:21 AM 40.8189 -78.5831 280° West 475 547 38,000  Level Cleveland Center
Tue 11:38:21 AM 40.8406 -78.7525 280° West 480 552 38,000  Level Cleveland Center
Tue 11:39:21 AM 40.8639 -78.9192 281° West 480 552 38,000  Level Cleveland Center
Tue 11:40:21 AM 40.8872 -79.0917 280° West 480 552 38,000  Level Cleveland Center
Tue 11:41:21 AM 40.9081 -79.2644 279° West 485 558 38,000  Level Cleveland Center
Tue 11:42:21 AM 40.9264 -79.4344 278° West 485 558 38,000  Level Cleveland Center
Tue 11:43:21 AM 40.9489 -79.6044 280° West 485 558 38,000  Level Cleveland Center
Tue 11:44:21 AM 40.9669 -79.7747 278° West 480 552 38,000  Level Cleveland Center
Tue 11:45:21 AM 40.9869 -79.9478 279° West 480 552 38,000  Level Cleveland Center
Tue 11:46:21 AM 41.0086 -80.1181 280° West 480 552 38,000  Level Cleveland Center
Tue 11:47:21 AM 41.0258 -80.2914 278° West 480 552 38,000  Level Cleveland Center
Tue 11:48:21 AM 41.0469 -80.4619 279° West 480 552 38,000  Level Cleveland Center
Tue 11:49:21 AM 41.0656 -80.6328 278° West 480 552 38,000  Level Cleveland Center
Tue 11:50:21 AM 41.0842 -80.8089 278° West 485 558 38,000  Level Cleveland Center
Tue 11:51:21 AM 41.1047 -80.9828 279° West 485 558 38,000  Level Cleveland Center
Tue 11:52:21 AM 41.1164 -81.1400 276° West 485 558 38,000  Level Cleveland Center
Tue 11:53:21 AM 41.1364 -81.3136 279° West 480 552 38,000  Level Cleveland Center
Tue 11:54:21 AM 41.1578 -81.5014 279° West 480 552 38,000  Level Cleveland Center
Tue 11:55:21 AM 41.1750 -81.6756 278° West 485 558 38,000  Level Cleveland Center
Tue 11:56:21 AM 41.1919 -81.8497 277° West 485 558 38,000  Level Cleveland Center
Tue 11:57:21 AM 41.2086 -82.0267 277° West 485 558 38,000  Level Cleveland Center
Tue 11:58:21 AM 41.2250 -82.2092 277° West 485 558 38,000  Level Cleveland Center
Tue 11:59:21 AM 41.2394 -82.3642 277° West 485 558 38,000  Level Cleveland Center
Tue 12:00:21 PM 41.2553 -82.5386 277° West 485 558 38,000  Level Cleveland Center
Tue 12:01:21 PM 41.2708 -82.7131 277° West 485 558 38,000  Level Cleveland Center
Tue 12:02:21 PM 41.2864 -82.8878 277° West 485 558 38,000  Level Cleveland Center
Tue 12:03:21 PM 41.3014 -83.0625 277° West 479 551 38,000  Level Cleveland Center
Tue 12:04:21 PM 41.3164 -83.2372 277° West 479 551 38,000  Level Cleveland Center
Tue 12:05:21 PM 41.3311 -83.4039 277° West 479 551 38,000 -400 Level Cleveland Center
Tue 12:06:21 PM 41.3456 -83.5758 276° West 479 551 37,200 -850 Descending Cleveland Center
Tue 12:07:21 PM 41.3594 -83.7508 276° West 479 551 36,300 -600 Descending Cleveland Center
Tue 12:08:21 PM 41.3753 -83.9233 277° West 479 551 36,000 -150 Descending Cleveland Center
Tue 12:09:21 PM 41.3869 -84.0928 275° West 479 551 36,000 -50 Level Cleveland Center
Tue 12:10:21 PM 41.4047 -84.2625 278° West 479 551 35,900 -650 Descending Cleveland Center
Tue 12:11:21 PM 41.4156 -84.4350 275° West 474 545 34,700 -2,149 Descending Cleveland Center
Tue 12:12:35 PM 41.4319 -84.6303 276° West 468 539 31,100 -2,074 Descending Chicago Center
Tue 12:13:37 PM 41.4453 -84.8372 275° West 468 539 30,000 -532 Descending Chicago Center
Tue 12:14:39 PM 41.4583 -85.0103 276° West 468 539 30,000 -968 Level Chicago Center
Tue 12:15:41 PM 41.4700 -85.1814 275° West 463 533 28,000 -2,081 Descending Chicago Center
Tue 12:16:43 PM 41.4803 -85.3483 275° West 450 518 25,700 -2,081 Descending Chicago Center
Tue 12:17:45 PM 41.4911 -85.5089 275° West 425 489 23,700 -2,032 Descending Chicago Center
Tue 12:18:47 PM 41.5011 -85.6606 275° West 407 468 21,500 -2,032 Descending Chicago Center
Tue 12:19:49 PM 41.5100 -85.8047 275° West 391 450 19,500 -1,839 Descending Chicago Center
Tue 12:20:51 PM 41.5197 -85.9428 275° West 376 433 17,700 -2,081 Descending Chicago Center
Tue 12:21:53 PM 41.5250 -86.1044 273° West 365 420 15,200 -2,129 Descending Chicago Center
Tue 12:22:55 PM 41.5242 -86.2378 270° West 362 417 13,300 -1,887 Descending Chicago Center
Tue 12:23:57 PM 41.5225 -86.3675 269° West 352 405 11,300 -1,500 Descending Chicago Center
Tue 12:24:59 PM 41.5211 -86.4936 269° West 344 396 10,200 -629 Descending Chicago Center
Tue 12:26:01 PM 41.5239 -86.6178 272° West 338 389 10,000 -97 Descending Chicago Center
Tue 12:27:03 PM 41.5217 -86.7444 269° West 332 382 10,000 -194 Level Chicago Center
Tue 12:28:05 PM 41.5194 -86.8872 269° West 320 368 9,600 -823 Descending Chicago Center
Tue 12:29:07 PM 41.5181 -86.9958 269° West 299 344 8,300 -1,403 Descending Chicago Center
Tue 12:30:09 PM 41.5158 -87.1039 268° West 295 339 6,700 -1,221 Descending Chicago Center
Tue 12:31:00 PM 41.5167 -87.2000 271° West 287 330 6,000 -378 Descending Chicago TRACON
Tue 12:32:00 PM 41.5167 -87.3000 270° West 281 323 6,000 -450 Level Chicago TRACON
Tue 12:33:00 PM 41.5333 -87.4167 281° West 286 329 5,100 -720 Descending Chicago TRACON
Tue 12:33:15 PM 41.5308 -87.4181 203° Southwest 284 327 5,100 -857 Level Chicago Center
Tue 12:34:17 PM 41.5497 -87.5364 282° West 277 319 4,000 -532 Descending Chicago Center
Tue 12:35:19 PM 41.5939 -87.6181 306° West 277 319 4,000 -524 Level Chicago Center
Tue 12:36:00 PM 41.6333 -87.6833 309° West 273 314 3,100 -891 Descending Chicago TRACON
Tue 12:37:00 PM 41.6667 -87.7500 304° West 241 277 2,500 -400 Descending Chicago TRACON
Tue 12:38:00 PM 41.7167 -87.8000 323° Northwest 167 192 2,300 -450 Descending Chicago TRACON
Tue 12:39:00 PM 41.7500 -87.8000 360° North 130 150 1,600 -744 Descending Chicago TRACON
Tue 12:40:01 PM 41.7667 -87.7667 56° Northeast 132 152 800 -787 Descending Chicago TRACON

Login

Don't have an account? Register now (free) for customized features, flight alerts, and more!